sensor_id;sensor_type;location;lat;lon;timestamp;pressure;altitude;pressure_sealevel;temperature;humidity
41624;BME280;27319;50.306;18.926;2023-02-23T00:00:41;98239.31;;;1.68;91.99
41624;BME280;27319;50.306;18.926;2023-02-23T00:04:41;98235.56;;;1.60;91.76
41624;BME280;27319;50.306;18.926;2023-02-23T00:08:22;98242.47;;;1.73;92.03
41624;BME280;27319;50.306;18.926;2023-02-23T00:11:23;98240.19;;;1.69;91.87
41624;BME280;27319;50.306;18.926;2023-02-23T00:14:26;98243.28;;;1.63;91.18
41624;BME280;27319;50.306;18.926;2023-02-23T00:17:28;98239.16;;;1.59;91.54
41624;BME280;27319;50.306;18.926;2023-02-23T00:20:31;98234.94;;;1.56;91.44
41624;BME280;27319;50.306;18.926;2023-02-23T00:23:32;98237.13;;;1.62;92.39
41624;BME280;27319;50.306;18.926;2023-02-23T00:26:53;98229.75;;;1.55;92.13
41624;BME280;27319;50.306;18.926;2023-02-23T00:30:53;98235.44;;;1.61;91.84
41624;BME280;27319;50.306;18.926;2023-02-23T00:34:35;98229.44;;;1.59;91.66
41624;BME280;27319;50.306;18.926;2023-02-23T00:37:36;98230.41;;;1.58;91.46
41624;BME280;27319;50.306;18.926;2023-02-23T00:40:40;98235.84;;;1.68;91.59
41624;BME280;27319;50.306;18.926;2023-02-23T00:44:01;98228.38;;;1.62;91.73
41624;BME280;27319;50.306;18.926;2023-02-23T00:47:43;98230.44;;;1.46;91.18
41624;BME280;27319;50.306;18.926;2023-02-23T00:50:44;98239.66;;;1.40;91.09
41624;BME280;27319;50.306;18.926;2023-02-23T00:53:45;98233.38;;;1.30;91.33
41624;BME280;27319;50.306;18.926;2023-02-23T00:56:46;98233.38;;;1.30;91.66
41624;BME280;27319;50.306;18.926;2023-02-23T00:59:47;98243.09;;;1.30;91.50
41624;BME280;27319;50.306;18.926;2023-02-23T01:03:08;98237.47;;;1.34;91.53
41624;BME280;27319;50.306;18.926;2023-02-23T01:06:33;98229.53;;;1.34;91.64
41624;BME280;27319;50.306;18.926;2023-02-23T01:09:56;98231.78;;;1.28;91.42
41624;BME280;27319;50.306;18.926;2023-02-23T01:14:00;98224.47;;;1.31;91.46
41624;BME280;27319;50.306;18.926;2023-02-23T01:17:41;98227.34;;;1.28;91.43
41624;BME280;27319;50.306;18.926;2023-02-23T01:21:05;98226.44;;;1.17;91.31
41624;BME280;27319;50.306;18.926;2023-02-23T01:25:05;98224.94;;;1.25;91.61
41624;BME280;27319;50.306;18.926;2023-02-23T01:29:01;98221.81;;;1.08;90.40
41624;BME280;27319;50.306;18.926;2023-02-23T01:32:02;98217.97;;;1.24;92.04
41624;BME280;27319;50.306;18.926;2023-02-23T01:35:08;98215.75;;;1.18;90.71
41624;BME280;27319;50.306;18.926;2023-02-23T01:38:10;98204.69;;;1.13;91.08
41624;BME280;27319;50.306;18.926;2023-02-23T01:41:11;98208.38;;;1.11;90.78
41624;BME280;27319;50.306;18.926;2023-02-23T01:47:33;98205.41;;;1.15;90.75
41624;BME280;27319;50.306;18.926;2023-02-23T01:54:31;98195.28;;;1.09;91.00
41624;BME280;27319;50.306;18.926;2023-02-23T01:58:14;98181.53;;;1.04;90.76
41624;BME280;27319;50.306;18.926;2023-02-23T02:01:16;98182.91;;;1.10;91.64
41624;BME280;27319;50.306;18.926;2023-02-23T02:04:17;98185.88;;;1.05;90.80
41624;BME280;27319;50.306;18.926;2023-02-23T02:07:44;98183.47;;;1.02;90.88
41624;BME280;27319;50.306;18.926;2023-02-23T02:11:43;98183.38;;;1.04;90.90
41624;BME280;27319;50.306;18.926;2023-02-23T02:15:48;98172.09;;;0.89;89.70
41624;BME280;27319;50.306;18.926;2023-02-23T02:43:51;98161.75;;;0.74;89.90
41624;BME280;27319;50.306;18.926;2023-02-23T02:51:26;98167.81;;;0.63;90.07
41624;BME280;27319;50.306;18.926;2023-02-23T02:55:32;98168.25;;;0.57;90.07
41624;BME280;27319;50.306;18.926;2023-02-23T02:59:16;98151.34;;;0.60;90.90
41624;BME280;27319;50.306;18.926;2023-02-23T03:02:55;98157.06;;;0.66;91.12
41624;BME280;27319;50.306;18.926;2023-02-23T03:06:58;98144.78;;;0.65;91.18
41624;BME280;27319;50.306;18.926;2023-02-23T03:10:45;98157.63;;;0.82;91.48
41624;BME280;27319;50.306;18.926;2023-02-23T03:14:35;98160.41;;;0.68;89.89
41624;BME280;27319;50.306;18.926;2023-02-23T03:18:23;98159.03;;;0.63;90.60
41624;BME280;27319;50.306;18.926;2023-02-23T03:22:14;98155.50;;;0.51;90.76
41624;BME280;27319;50.306;18.926;2023-02-23T03:26:01;98142.47;;;0.61;91.02
41624;BME280;27319;50.306;18.926;2023-02-23T03:37:17;98151.47;;;0.46;90.72
41624;BME280;27319;50.306;18.926;2023-02-23T03:41:14;98157.06;;;0.54;91.21
41624;BME280;27319;50.306;18.926;2023-02-23T03:45:15;98151.59;;;0.44;90.83
41624;BME280;27319;50.306;18.926;2023-02-23T03:49:12;98160.06;;;0.49;91.50
41624;BME280;27319;50.306;18.926;2023-02-23T03:53:12;98156.22;;;0.53;91.53
41624;BME280;27319;50.306;18.926;2023-02-23T03:56:52;98163.63;;;0.48;91.43
41624;BME280;27319;50.306;18.926;2023-02-23T04:00:18;98158.03;;;0.40;91.06
41624;BME280;27319;50.306;18.926;2023-02-23T04:03:49;98160.25;;;0.46;91.70
41624;BME280;27319;50.306;18.926;2023-02-23T04:07:12;98165.09;;;0.40;91.26
41624;BME280;27319;50.306;18.926;2023-02-23T04:10:34;98158.69;;;0.31;90.98
41624;BME280;27319;50.306;18.926;2023-02-23T04:15:09;98155.75;;;0.36;91.79
41624;BME280;27319;50.306;18.926;2023-02-23T04:17:51;98155.84;;;0.34;91.41
41624;BME280;27319;50.306;18.926;2023-02-23T04:20:54;98152.91;;;0.26;91.65
41624;BME280;27319;50.306;18.926;2023-02-23T04:23:55;98147.78;;;0.48;93.12
41624;BME280;27319;50.306;18.926;2023-02-23T04:26:56;98152.25;;;0.35;92.25
41624;BME280;27319;50.306;18.926;2023-02-23T04:30:17;98153.50;;;0.42;92.45
41624;BME280;27319;50.306;18.926;2023-02-23T04:34:05;98147.47;;;0.53;92.01
41624;BME280;27319;50.306;18.926;2023-02-23T04:37:06;98146.31;;;0.44;91.68
41624;BME280;27319;50.306;18.926;2023-02-23T04:40:08;98143.53;;;0.58;92.10
41624;BME280;27319;50.306;18.926;2023-02-23T04:43:18;98145.91;;;0.50;91.98
41624;BME280;27319;50.306;18.926;2023-02-23T04:46:19;98137.44;;;0.45;91.90
41624;BME280;27319;50.306;18.926;2023-02-23T04:49:19;98139.28;;;0.32;91.06
41624;BME280;27319;50.306;18.926;2023-02-23T04:52:20;98136.84;;;0.29;91.36
41624;BME280;27319;50.306;18.926;2023-02-23T04:55:23;98136.84;;;0.29;91.35
41624;BME280;27319;50.306;18.926;2023-02-23T04:58:24;98137.50;;;0.20;91.39
41624;BME280;27319;50.306;18.926;2023-02-23T05:01:26;98136.22;;;0.13;91.48
41624;BME280;27319;50.306;18.926;2023-02-23T05:04:29;98132.00;;;0.23;92.24
41624;BME280;27319;50.306;18.926;2023-02-23T05:07:30;98136.00;;;0.16;91.98
41624;BME280;27319;50.306;18.926;2023-02-23T05:10:30;98139.63;;;0.15;92.43
41624;BME280;27319;50.306;18.926;2023-02-23T05:13:31;98132.22;;;0.20;91.76
41624;BME280;27319;50.306;18.926;2023-02-23T05:16:32;98134.34;;;0.15;91.94
41624;BME280;27319;50.306;18.926;2023-02-23T05:19:33;98139.38;;;0.18;91.46
41624;BME280;27319;50.306;18.926;2023-02-23T05:22:35;98136.00;;;0.29;92.65
41624;BME280;27319;50.306;18.926;2023-02-23T05:25:39;98135.38;;;0.13;91.85
41624;BME280;27319;50.306;18.926;2023-02-23T05:28:41;98143.59;;;0.21;92.60
41624;BME280;27319;50.306;18.926;2023-02-23T05:31:42;98149.31;;;0.02;92.21
41624;BME280;27319;50.306;18.926;2023-02-23T05:34:43;98145.31;;;0.09;92.37
41624;BME280;27319;50.306;18.926;2023-02-23T05:37:59;98139.81;;;0.12;92.00
41624;BME280;27319;50.306;18.926;2023-02-23T05:41:23;98137.41;;;0.09;92.16
41624;BME280;27319;50.306;18.926;2023-02-23T05:45:24;98135.59;;;0.10;92.36
41624;BME280;27319;50.306;18.926;2023-02-23T05:49:25;98141.81;;;0.09;92.28
41624;BME280;27319;50.306;18.926;2023-02-23T05:53:26;98143.94;;;0.16;92.53
41624;BME280;27319;50.306;18.926;2023-02-23T05:57:26;98150.16;;;0.15;92.22
41624;BME280;27319;50.306;18.926;2023-02-23T06:01:08;98151.84;;;0.16;92.90
41624;BME280;27319;50.306;18.926;2023-02-23T06:04:08;98148.56;;;0.25;92.49
41624;BME280;27319;50.306;18.926;2023-02-23T06:07:29;98150.16;;;0.15;92.10
41624;BME280;27319;50.306;18.926;2023-02-23T06:11:30;98151.22;;;0.13;92.34
41624;BME280;27319;50.306;18.926;2023-02-23T06:15:31;98147.94;;;0.22;92.51
41624;BME280;27319;50.306;18.926;2023-02-23T06:19:12;98151.41;;;0.22;92.61
41624;BME280;27319;50.306;18.926;2023-02-23T06:22:32;98155.31;;;0.29;92.63
41624;BME280;27319;50.306;18.926;2023-02-23T06:26:33;98154.78;;;0.24;92.67
41624;BME280;27319;50.306;18.926;2023-02-23T06:30:14;98159.75;;;0.29;92.92
41624;BME280;27319;50.306;18.926;2023-02-23T06:33:35;98158.69;;;0.31;92.94
41624;BME280;27319;50.306;18.926;2023-02-23T06:37:36;98164.09;;;0.30;93.08
41624;BME280;27319;50.306;18.926;2023-02-23T06:41:06;98162.81;;;0.35;93.08
41624;BME280;27319;50.306;18.926;2023-02-23T06:44:08;98166.50;;;0.45;92.90
41624;BME280;27319;50.306;18.926;2023-02-23T06:47:28;98165.75;;;0.43;92.55
41624;BME280;27319;50.306;18.926;2023-02-23T06:51:29;98168.59;;;0.53;93.05
41624;BME280;27319;50.306;18.926;2023-02-23T06:55:30;98168.88;;;0.61;92.70
41624;BME280;27319;50.306;18.926;2023-02-23T06:59:31;98171.59;;;0.72;92.92
41624;BME280;27319;50.306;18.926;2023-02-23T07:03:32;98174.88;;;0.75;92.63
41624;BME280;27319;50.306;18.926;2023-02-23T07:07:09;98171.78;;;0.81;92.73
41624;BME280;27319;50.306;18.926;2023-02-23T07:10:10;98173.47;;;0.82;92.70
41624;BME280;27319;50.306;18.926;2023-02-23T07:13:31;98172.81;;;0.91;92.47
41624;BME280;27319;50.306;18.926;2023-02-23T07:17:32;98182.94;;;0.97;92.22
41624;BME280;27319;50.306;18.926;2023-02-23T07:21:33;98169.81;;;1.08;92.43
41624;BME280;27319;50.306;18.926;2023-02-23T07:25:34;98173.16;;;1.10;92.15
41624;BME280;27319;50.306;18.926;2023-02-23T07:29:34;98164.63;;;1.30;91.74
41624;BME280;27319;50.306;18.926;2023-02-23T07:33:35;98170.38;;;1.24;91.91
41624;BME280;27319;50.306;18.926;2023-02-23T07:37:36;98175.72;;;1.35;91.65
41624;BME280;27319;50.306;18.926;2023-02-23T07:41:02;98165.63;;;1.40;91.08
41624;BME280;27319;50.306;18.926;2023-02-23T07:44:23;98160.22;;;1.42;90.91
41624;BME280;27319;50.306;18.926;2023-02-23T07:48:24;98166.97;;;1.46;90.34
41624;BME280;27319;50.306;18.926;2023-02-23T07:52:25;98165.97;;;1.59;89.87
41624;BME280;27319;50.306;18.926;2023-02-23T07:56:26;98152.50;;;1.62;90.53
41624;BME280;27319;50.306;18.926;2023-02-23T08:00:27;98160.81;;;1.69;89.74
41624;BME280;27319;50.306;18.926;2023-02-23T08:04:28;98150.03;;;1.83;89.43
41624;BME280;27319;50.306;18.926;2023-02-23T08:08:29;98149.69;;;1.87;89.28
41624;BME280;27319;50.306;18.926;2023-02-23T08:12:30;98153.53;;;1.94;89.20
41624;BME280;27319;50.306;18.926;2023-02-23T08:16:11;98151.03;;;2.04;89.26
41624;BME280;27319;50.306;18.926;2023-02-23T08:19:31;98148.78;;;2.10;89.73
41624;BME280;27319;50.306;18.926;2023-02-23T08:23:12;98146.97;;;2.22;88.58
41624;BME280;27319;50.306;18.926;2023-02-23T08:26:36;98143.34;;;2.34;88.75
41624;BME280;27319;50.306;18.926;2023-02-23T08:30:37;98139.50;;;2.38;88.92
41624;BME280;27319;50.306;18.926;2023-02-23T08:34:38;98140.94;;;2.53;88.77
41624;BME280;27319;50.306;18.926;2023-02-23T08:38:28;98146.59;;;2.70;87.70
41624;BME280;27319;50.306;18.926;2023-02-23T08:42:25;98143.94;;;2.81;87.47
41624;BME280;27319;50.306;18.926;2023-02-23T08:46:25;98151.88;;;2.92;87.05
41624;BME280;27319;50.306;18.926;2023-02-23T08:50:26;98144.41;;;2.97;87.51
41624;BME280;27319;50.306;18.926;2023-02-23T08:54:09;98147.94;;;3.18;86.41
41624;BME280;27319;50.306;18.926;2023-02-23T08:58:10;98148.06;;;3.28;86.29
41624;BME280;27319;50.306;18.926;2023-02-23T09:02:11;98145.84;;;3.33;85.81
41624;BME280;27319;50.306;18.926;2023-02-23T09:06:14;98136.41;;;3.51;85.65
41624;BME280;27319;50.306;18.926;2023-02-23T09:10:17;98134.34;;;3.54;85.12
41624;BME280;27319;50.306;18.926;2023-02-23T09:14:02;98124.88;;;3.61;85.14
41624;BME280;27319;50.306;18.926;2023-02-23T09:18:03;98129.56;;;3.69;85.25
41624;BME280;27319;50.306;18.926;2023-02-23T09:21:39;98143.47;;;3.82;84.57
41624;BME280;27319;50.306;18.926;2023-02-23T09:25:41;98149.34;;;3.85;84.19
41624;BME280;27319;50.306;18.926;2023-02-23T09:29:23;98144.09;;;3.95;83.97
41624;BME280;27319;50.306;18.926;2023-02-23T09:33:05;98147.66;;;4.25;82.51
41624;BME280;27319;50.306;18.926;2023-02-23T09:37:05;98147.13;;;4.31;82.88
41624;BME280;27319;50.306;18.926;2023-02-23T09:41:25;98151.91;;;4.37;83.13
41624;BME280;27319;50.306;18.926;2023-02-23T09:45:25;98138.25;;;4.51;82.25
41624;BME280;27319;50.306;18.926;2023-02-23T09:49:24;98137.75;;;4.57;81.17
41624;BME280;27319;50.306;18.926;2023-02-23T09:53:25;98138.91;;;4.64;81.64
41624;BME280;27319;50.306;18.926;2023-02-23T09:57:25;98136.84;;;4.77;80.92
41624;BME280;27319;50.306;18.926;2023-02-23T10:04:47;98143.22;;;5.14;79.81
41624;BME280;27319;50.306;18.926;2023-02-23T10:07:55;98140.75;;;5.22;79.12
41624;BME280;27319;50.306;18.926;2023-02-23T10:11:09;98148.63;;;5.43;79.61
41624;BME280;27319;50.306;18.926;2023-02-23T10:14:44;98145.13;;;5.61;78.78
41624;BME280;27319;50.306;18.926;2023-02-23T10:18:27;98144.72;;;5.94;76.64
41624;BME280;27319;50.306;18.926;2023-02-23T10:24:47;98148.91;;;6.06;77.56
41624;BME280;27319;50.306;18.926;2023-02-23T10:27:52;98144.28;;;6.18;76.55
41624;BME280;27319;50.306;18.926;2023-02-23T10:30:55;98145.50;;;6.33;74.57
41624;BME280;27319;50.306;18.926;2023-02-23T10:33:59;98148.31;;;6.31;75.02
41624;BME280;27319;50.306;18.926;2023-02-23T10:37:05;98142.50;;;6.45;74.74
41624;BME280;27319;50.306;18.926;2023-02-23T10:40:12;98133.91;;;6.51;73.65
41624;BME280;27319;50.306;18.926;2023-02-23T10:43:14;98127.59;;;6.52;73.94
41624;BME280;27319;50.306;18.926;2023-02-23T10:46:41;98119.88;;;6.59;73.72
41624;BME280;27319;50.306;18.926;2023-02-23T10:50:42;98122.44;;;6.78;73.96
41624;BME280;27319;50.306;18.926;2023-02-23T10:54:40;98112.19;;;6.83;73.01
41624;BME280;27319;50.306;18.926;2023-02-23T10:58:19;98108.50;;;6.93;73.06
41624;BME280;27319;50.306;18.926;2023-02-23T11:01:58;98104.09;;;7.02;73.42
41624;BME280;27319;50.306;18.926;2023-02-23T11:06:02;98093.06;;;7.32;71.70
41624;BME280;27319;50.306;18.926;2023-02-23T11:09:59;98092.31;;;7.57;72.74
41624;BME280;27319;50.306;18.926;2023-02-23T11:13:00;98090.09;;;7.52;71.81
41624;BME280;27319;50.306;18.926;2023-02-23T11:16:25;98087.81;;;7.57;71.36
41624;BME280;27319;50.306;18.926;2023-02-23T11:20:19;98086.25;;;7.72;71.27
41624;BME280;27319;50.306;18.926;2023-02-23T11:23:33;98091.91;;;7.69;71.48
41624;BME280;27319;50.306;18.926;2023-02-23T11:26:59;98088.41;;;7.69;71.32
41624;BME280;27319;50.306;18.926;2023-02-23T11:30:40;98082.38;;;7.67;71.04
41624;BME280;27319;50.306;18.926;2023-02-23T11:33:42;98077.25;;;7.73;71.02
41624;BME280;27319;50.306;18.926;2023-02-23T11:37:06;98073.28;;;7.77;71.20
41624;BME280;27319;50.306;18.926;2023-02-23T11:40:31;98073.66;;;7.82;72.14
41624;BME280;27319;50.306;18.926;2023-02-23T11:43:34;98066.03;;;7.87;72.25
41624;BME280;27319;50.306;18.926;2023-02-23T11:46:55;98063.91;;;7.99;71.74
41624;BME280;27319;50.306;18.926;2023-02-23T11:53:50;98063.88;;;8.16;70.88
41624;BME280;27319;50.306;18.926;2023-02-23T11:57:18;98063.50;;;8.29;70.61
41624;BME280;27319;50.306;18.926;2023-02-23T12:01:02;98059.59;;;8.23;71.43
41624;BME280;27319;50.306;18.926;2023-02-23T12:04:08;98054.00;;;8.34;70.72
41624;BME280;27319;50.306;18.926;2023-02-23T12:07:35;98054.22;;;8.41;69.16
41624;BME280;27319;50.306;18.926;2023-02-23T12:11:20;98051.91;;;8.46;71.64
41624;BME280;27319;50.306;18.926;2023-02-23T12:14:29;98041.72;;;8.49;71.20
41624;BME280;27319;50.306;18.926;2023-02-23T12:17:44;98042.47;;;8.67;70.71
41624;BME280;27319;50.306;18.926;2023-02-23T12:20:50;98038.44;;;8.63;70.60
41624;BME280;27319;50.306;18.926;2023-02-23T12:27:45;98029.44;;;8.72;70.17
41624;BME280;27319;50.306;18.926;2023-02-23T12:32:09;98024.78;;;8.82;70.05
41624;BME280;27319;50.306;18.926;2023-02-23T12:44:32;98005.75;;;8.93;71.45
41624;BME280;27319;50.306;18.926;2023-02-23T12:52:15;98002.75;;;9.04;70.66
41624;BME280;27319;50.306;18.926;2023-02-23T13:07:07;97976.50;;;9.24;70.01
41624;BME280;27319;50.306;18.926;2023-02-23T13:14:56;97974.50;;;9.42;68.71
41624;BME280;27319;50.306;18.926;2023-02-23T13:26:15;97968.31;;;9.81;67.42
41624;BME280;27319;50.306;18.926;2023-02-23T13:30:13;97971.31;;;9.62;68.82
41624;BME280;27319;50.306;18.926;2023-02-23T13:33:56;97966.31;;;9.59;68.75
41624;BME280;27319;50.306;18.926;2023-02-23T13:37:18;97962.66;;;9.52;68.85
41624;BME280;27319;50.306;18.926;2023-02-23T13:44:16;97953.94;;;9.42;69.21
41624;BME280;27319;50.306;18.926;2023-02-23T13:47:28;97953.09;;;9.42;68.91
41624;BME280;27319;50.306;18.926;2023-02-23T13:51:12;97945.22;;;9.64;68.87
41624;BME280;27319;50.306;18.926;2023-02-23T13:59:08;97938.28;;;10.02;68.43
41624;BME280;27319;50.306;18.926;2023-02-23T14:03:21;97937.78;;;10.06;67.44
41624;BME280;27319;50.306;18.926;2023-02-23T14:07:28;97939.44;;;10.07;67.42
41624;BME280;27319;50.306;18.926;2023-02-23T14:11:26;97931.75;;;9.88;67.53
41624;BME280;27319;50.306;18.926;2023-02-23T14:19:31;97929.44;;;9.77;68.80
41624;BME280;27319;50.306;18.926;2023-02-23T14:30:53;97930.28;;;9.70;69.30
41624;BME280;27319;50.306;18.926;2023-02-23T14:34:51;97921.78;;;9.58;70.53
41624;BME280;27319;50.306;18.926;2023-02-23T14:38:42;97917.44;;;9.49;70.50
41624;BME280;27319;50.306;18.926;2023-02-23T14:42:25;97922.97;;;9.40;70.88
41624;BME280;27319;50.306;18.926;2023-02-23T14:45:50;97922.78;;;9.33;71.95
41624;BME280;27319;50.306;18.926;2023-02-23T14:49:36;97914.41;;;9.28;72.47
41624;BME280;27319;50.306;18.926;2023-02-23T14:53:39;97914.94;;;9.16;72.53
41624;BME280;27319;50.306;18.926;2023-02-23T14:57:41;97902.38;;;9.16;73.27
41624;BME280;27319;50.306;18.926;2023-02-23T15:01:50;97899.03;;;8.98;74.11
41624;BME280;27319;50.306;18.926;2023-02-23T15:05:56;97894.19;;;8.86;74.16
41624;BME280;27319;50.306;18.926;2023-02-23T15:09:59;97888.66;;;8.79;73.94
41624;BME280;27319;50.306;18.926;2023-02-23T15:14:00;97888.31;;;8.66;75.50
41624;BME280;27319;50.306;18.926;2023-02-23T15:18:01;97877.56;;;8.58;76.21
41624;BME280;27319;50.306;18.926;2023-02-23T15:21:57;97874.19;;;8.48;76.35
41624;BME280;27319;50.306;18.926;2023-02-23T15:25:39;97871.53;;;8.40;76.81
41624;BME280;27319;50.306;18.926;2023-02-23T15:36:50;97859.44;;;8.20;77.44
41624;BME280;27319;50.306;18.926;2023-02-23T15:40:51;97862.19;;;8.11;78.10
41624;BME280;27319;50.306;18.926;2023-02-23T15:44:21;97862.34;;;8.01;78.76
41624;BME280;27319;50.306;18.926;2023-02-23T15:47:43;97861.31;;;7.94;78.43
41624;BME280;27319;50.306;18.926;2023-02-23T15:54:54;97854.59;;;7.82;78.50
41624;BME280;27319;50.306;18.926;2023-02-23T15:58:40;97854.88;;;7.79;78.62
41624;BME280;27319;50.306;18.926;2023-02-23T16:02:41;97845.69;;;7.74;78.67
41624;BME280;27319;50.306;18.926;2023-02-23T16:10:46;97853.69;;;7.66;79.55
41624;BME280;27319;50.306;18.926;2023-02-23T16:14:57;97848.47;;;7.56;79.81
41624;BME280;27319;50.306;18.926;2023-02-23T16:18:57;97841.06;;;7.50;80.59
41624;BME280;27319;50.306;18.926;2023-02-23T16:22:58;97840.72;;;7.45;80.38
41624;BME280;27319;50.306;18.926;2023-02-23T16:26:48;97846.06;;;7.45;79.93
41624;BME280;27319;50.306;18.926;2023-02-23T16:34:19;97845.63;;;7.32;81.27
41624;BME280;27319;50.306;18.926;2023-02-23T16:38:03;97845.00;;;7.38;81.29
41624;BME280;27319;50.306;18.926;2023-02-23T16:41:19;97840.34;;;7.40;81.03
41624;BME280;27319;50.306;18.926;2023-02-23T16:44:40;97841.00;;;7.34;80.89
41624;BME280;27319;50.306;18.926;2023-02-23T16:48:41;97839.66;;;7.38;80.86
41624;BME280;27319;50.306;18.926;2023-02-23T16:52:43;97843.66;;;7.34;81.76
41624;BME280;27319;50.306;18.926;2023-02-23T16:56:43;97846.47;;;7.33;81.74
41624;BME280;27319;50.306;18.926;2023-02-23T17:00:27;97845.81;;;7.31;82.12
41624;BME280;27319;50.306;18.926;2023-02-23T17:03:48;97832.63;;;7.29;81.82
41624;BME280;27319;50.306;18.926;2023-02-23T17:07:37;97841.34;;;7.39;81.32
41624;BME280;27319;50.306;18.926;2023-02-23T17:11:38;97846.63;;;7.31;82.12
41624;BME280;27319;50.306;18.926;2023-02-23T17:15:40;97839.25;;;7.25;82.56
41624;BME280;27319;50.306;18.926;2023-02-23T17:19:39;97846.06;;;7.20;83.17
41624;BME280;27319;50.306;18.926;2023-02-23T17:23:40;97844.38;;;7.19;83.34
41624;BME280;27319;50.306;18.926;2023-02-23T17:27:41;97833.69;;;7.19;83.19
41624;BME280;27319;50.306;18.926;2023-02-23T17:31:41;97840.38;;;7.15;83.43
41624;BME280;27319;50.306;18.926;2023-02-23T17:35:23;97836.19;;;7.12;83.64
41624;BME280;27319;50.306;18.926;2023-02-23T17:38:44;97833.19;;;7.15;83.66
41624;BME280;27319;50.306;18.926;2023-02-23T17:42:45;97842.31;;;7.13;83.76
41624;BME280;27319;50.306;18.926;2023-02-23T17:46:49;97837.31;;;7.10;84.09
41624;BME280;27319;50.306;18.926;2023-02-23T17:50:56;97830.97;;;7.11;84.41
41624;BME280;27319;50.306;18.926;2023-02-23T17:54:56;97824.19;;;7.16;84.04
41624;BME280;27319;50.306;18.926;2023-02-23T17:58:58;97825.66;;;7.11;84.26
41624;BME280;27319;50.306;18.926;2023-02-23T18:02:58;97825.13;;;7.07;84.61
41624;BME280;27319;50.306;18.926;2023-02-23T18:06:58;97834.81;;;7.08;84.94
41624;BME280;27319;50.306;18.926;2023-02-23T18:10:59;97817.41;;;7.04;84.77
41624;BME280;27319;50.306;18.926;2023-02-23T18:14:56;97824.97;;;7.09;84.94
41624;BME280;27319;50.306;18.926;2023-02-23T18:18:16;97818.78;;;7.08;84.45
41624;BME280;27319;50.306;18.926;2023-02-23T18:22:17;97807.50;;;7.14;84.62
41624;BME280;27319;50.306;18.926;2023-02-23T18:26:24;97808.59;;;7.04;85.21
41624;BME280;27319;50.306;18.926;2023-02-23T18:30:25;97803.78;;;7.07;85.15
41624;BME280;27319;50.306;18.926;2023-02-23T18:34:26;97795.09;;;7.05;84.93
41624;BME280;27319;50.306;18.926;2023-02-23T18:38:26;97789.25;;;7.02;85.39
41624;BME280;27319;50.306;18.926;2023-02-23T18:42:27;97787.19;;;6.96;85.86
41624;BME280;27319;50.306;18.926;2023-02-23T18:46:28;97781.25;;;7.02;85.53
41624;BME280;27319;50.306;18.926;2023-02-23T18:50:09;97787.41;;;7.02;85.36
41624;BME280;27319;50.306;18.926;2023-02-23T18:53:34;97772.53;;;7.00;86.16
41624;BME280;27319;50.306;18.926;2023-02-23T18:57:31;97777.88;;;7.00;85.55
41624;BME280;27319;50.306;18.926;2023-02-23T19:01:32;97775.69;;;6.95;85.78
41624;BME280;27319;50.306;18.926;2023-02-23T19:05:33;97772.03;;;6.96;85.96
41624;BME280;27319;50.306;18.926;2023-02-23T19:09:14;97763.03;;;6.97;86.14
41624;BME280;27319;50.306;18.926;2023-02-23T19:12:39;97769.22;;;6.98;86.19
41624;BME280;27319;50.306;18.926;2023-02-23T19:16:40;97755.16;;;6.96;86.35
41624;BME280;27319;50.306;18.926;2023-02-23T19:20:40;97759.69;;;6.95;86.48
41624;BME280;27319;50.306;18.926;2023-02-23T19:24:41;97761.50;;;6.95;86.53
41624;BME280;27319;50.306;18.926;2023-02-23T19:28:38;97756.34;;;6.93;86.99
41624;BME280;27319;50.306;18.926;2023-02-23T19:32:39;97755.03;;;6.97;86.87
41624;BME280;27319;50.306;18.926;2023-02-23T19:36:40;97750.69;;;6.96;86.78
41624;BME280;27319;50.306;18.926;2023-02-23T19:40:40;97758.19;;;7.01;86.82
41624;BME280;27319;50.306;18.926;2023-02-23T19:44:08;97759.06;;;7.01;87.03
41624;BME280;27319;50.306;18.926;2023-02-23T19:48:12;97742.41;;;7.07;87.00
41624;BME280;27319;50.306;18.926;2023-02-23T19:52:13;97748.47;;;7.17;86.22
41624;BME280;27319;50.306;18.926;2023-02-23T19:56:17;97743.56;;;7.38;85.57
41624;BME280;27319;50.306;18.926;2023-02-23T20:00:18;97746.28;;;7.54;84.93
41624;BME280;27319;50.306;18.926;2023-02-23T20:03:57;97753.00;;;7.66;84.06
41624;BME280;27319;50.306;18.926;2023-02-23T20:08:01;97755.38;;;7.69;84.76
41624;BME280;27319;50.306;18.926;2023-02-23T20:12:02;97747.50;;;7.68;84.41
41624;BME280;27319;50.306;18.926;2023-02-23T20:16:06;97742.69;;;7.71;84.72
41624;BME280;27319;50.306;18.926;2023-02-23T20:20:07;97743.03;;;7.84;84.29
41624;BME280;27319;50.306;18.926;2023-02-23T20:24:08;97732.03;;;7.87;84.25
41624;BME280;27319;50.306;18.926;2023-02-23T20:28:09;97727.88;;;7.93;83.92
41624;BME280;27319;50.306;18.926;2023-02-23T20:32:10;97727.88;;;7.85;84.73
41624;BME280;27319;50.306;18.926;2023-02-23T20:35:51;97720.34;;;7.80;84.66
41624;BME280;27319;50.306;18.926;2023-02-23T20:39:12;97716.69;;;7.89;84.17
41624;BME280;27319;50.306;18.926;2023-02-23T20:43:13;97714.16;;;7.80;84.74
41624;BME280;27319;50.306;18.926;2023-02-23T20:47:13;97707.66;;;7.82;84.38
41624;BME280;27319;50.306;18.926;2023-02-23T20:51:15;97702.63;;;7.79;84.46
41624;BME280;27319;50.306;18.926;2023-02-23T20:55:18;97699.94;;;7.71;85.00
41624;BME280;27319;50.306;18.926;2023-02-23T20:59:19;97710.63;;;7.71;84.73
41624;BME280;27319;50.306;18.926;2023-02-23T21:03:20;97707.66;;;7.74;84.28
41624;BME280;27319;50.306;18.926;2023-02-23T21:07:20;97701.31;;;7.75;84.38
41624;BME280;27319;50.306;18.926;2023-02-23T21:11:06;97696.31;;;7.88;83.77
41624;BME280;27319;50.306;18.926;2023-02-23T21:14:28;97698.63;;;7.83;84.01
41624;BME280;27319;50.306;18.926;2023-02-23T21:18:29;97689.78;;;7.75;84.21
41624;BME280;27319;50.306;18.926;2023-02-23T21:22:29;97687.28;;;7.81;83.97
41624;BME280;27319;50.306;18.926;2023-02-23T21:26:30;97686.28;;;7.82;84.18
41624;BME280;27319;50.306;18.926;2023-02-23T21:29:54;97683.59;;;7.82;83.86
41624;BME280;27319;50.306;18.926;2023-02-23T21:33:55;97685.78;;;7.79;84.03